Time;durP1;ratioP1;P1;durP2;ratioP2;P2;SDS_P1;SDS_P2;PMS_P1;PMS_P2;Temp;Humidity;BMP_temperature;BMP_pressure;BME280_temperature;BME280_humidity;BME280_pressure;Samples;Min_cycle;Max_cycle;Signal;HPM_P1;HPM_P2
2022/04/17 00:01:24;;;;;;;5.68;2.78;;;;;;;8.75;34.24;101371.44;5406736;32;46822;-68
2022/04/17 00:04:26;;;;;;;5.00;2.30;;;;;;;8.37;34.00;101373.78;5424934;32;35333;-69
2022/04/17 00:07:28;;;;;;;3.03;1.90;;;;;;;8.05;33.99;101379.44;5412849;32;34577;-68
2022/04/17 00:10:31;;;;;;;3.27;1.80;;;;;;;8.37;33.00;101386.88;5412674;32;34297;-66
2022/04/17 00:13:34;;;;;;;3.87;1.77;;;;;;;8.01;33.22;101380.34;5395372;32;34790;-66
2022/04/17 00:16:36;;;;;;;3.13;2.00;;;;;;;8.01;33.26;101374.25;5395629;32;34846;-68
2022/04/17 00:19:39;;;;;;;5.37;2.35;;;;;;;8.27;32.93;101372.13;5403958;32;34880;-69
2022/04/17 00:22:45;;;;;;;4.20;2.10;;;;;;;7.83;33.51;101372.72;5400678;32;34837;-65
2022/04/17 00:25:47;;;;;;;5.63;2.07;;;;;;;7.75;33.64;101378.03;5415873;32;34554;-65
2022/04/17 00:28:49;;;;;;;5.77;2.07;;;;;;;7.70;33.50;101371.12;5402703;32;35473;-65
2022/04/17 00:31:51;;;;;;;4.23;1.80;;;;;;;7.74;33.57;101359.75;5410801;32;45340;-68
2022/04/17 00:34:54;;;;;;;3.77;1.60;;;;;;;7.76;33.78;101378.91;5413184;32;34933;-65
2022/04/17 00:37:56;;;;;;;2.77;1.80;;;;;;;7.79;33.83;101363.16;5405814;32;35260;-67
2022/04/17 00:40:58;;;;;;;7.90;2.13;;;;;;;8.12;33.32;101364.50;5418349;32;34768;-68
2022/04/17 00:44:00;;;;;;;6.13;2.07;;;;;;;9.21;31.70;101363.72;5408152;32;34105;-68
2022/04/17 00:47:04;;;;;;;3.23;1.80;;;;;;;7.91;33.38;101367.38;5414914;32;35401;-65
2022/04/17 00:50:07;;;;;;;2.35;1.65;;;;;;;7.74;33.83;101372.84;5411513;32;37163;-65
2022/04/17 00:53:09;;;;;;;3.85;1.80;;;;;;;7.33;33.27;101371.53;5412051;32;34787;-66
2022/04/17 00:56:11;;;;;;;3.47;1.70;;;;;;;7.42;33.22;101374.06;5374051;32;34969;-66
2022/04/17 00:59:14;;;;;;;2.80;1.70;;;;;;;7.94;32.51;101357.75;5403562;32;35051;-67
2022/04/17 01:02:16;;;;;;;4.63;1.90;;;;;;;7.91;32.86;101349.06;5409102;32;35846;-66
2022/04/17 01:05:19;;;;;;;2.87;1.60;;;;;;;7.69;33.14;101361.56;5394374;32;34737;-67
2022/04/17 01:08:22;;;;;;;2.95;1.73;;;;;;;7.07;34.34;101363.94;5419083;32;44321;-68
2022/04/17 01:11:24;;;;;;;3.77;1.93;;;;;;;7.29;34.02;101354.16;5397856;32;35112;-67
2022/04/17 01:14:29;;;;;;;4.50;1.70;;;;;;;7.38;33.99;101354.03;5404300;32;34207;-68
2022/04/17 01:17:32;;;;;;;5.27;1.77;;;;;;;7.23;33.91;101362.06;5413232;32;35202;-66
2022/04/17 01:20:36;;;;;;;5.33;1.77;;;;;;;7.93;33.19;101349.94;5396687;32;34489;-67
2022/04/17 01:27:01;;;;;;;3.33;1.70;;;;;;;7.42;33.71;101353.13;5400571;32;44491;-67
2022/04/17 01:30:04;;;;;;;5.07;1.90;;;;;;;7.28;33.92;101355.03;5407798;32;34489;-67
2022/04/17 01:33:06;;;;;;;3.07;1.70;;;;;;;7.82;33.52;101347.44;5412407;32;36306;-69
2022/04/17 01:36:08;;;;;;;3.23;1.70;;;;;;;7.69;33.58;101344.09;5401354;32;34735;-66
2022/04/17 01:39:11;;;;;;;2.90;1.80;;;;;;;8.02;32.82;101347.19;5417482;32;35360;-67
2022/04/17 01:42:13;;;;;;;2.42;1.52;;;;;;;7.49;33.76;101339.09;5411120;32;35611;-68
2022/04/17 01:45:15;;;;;;;3.90;2.10;;;;;;;7.44;33.69;101345.25;5409934;32;36547;-68
2022/04/17 01:48:17;;;;;;;2.97;1.63;;;;;;;7.89;32.99;101346.47;5388577;32;35164;-65
2022/04/17 01:51:20;;;;;;;3.67;1.80;;;;;;;8.09;32.32;101335.72;5418282;32;35542;-68
2022/04/17 01:54:24;;;;;;;3.03;1.80;;;;;;;8.21;31.95;101347.78;5391904;32;44521;-66
2022/04/17 01:57:26;;;;;;;4.00;1.80;;;;;;;7.91;32.63;101341.22;5375530;32;34600;-66
2022/04/17 02:00:28;;;;;;;2.23;1.40;;;;;;;7.95;32.79;101343.78;5408979;32;34220;-69
2022/04/17 02:03:30;;;;;;;3.57;1.87;;;;;;;8.05;32.76;101336.66;5405765;32;34881;-68
2022/04/17 02:06:33;;;;;;;2.53;1.60;;;;;;;7.54;33.05;101337.31;5406444;32;35502;-68
2022/04/17 02:09:35;;;;;;;3.58;2.08;;;;;;;8.02;32.25;101336.69;5411038;32;34777;-68
2022/04/17 02:12:37;;;;;;;3.60;1.77;;;;;;;8.50;31.55;101337.78;5412530;32;35611;-66
2022/04/17 02:15:39;;;;;;;2.93;1.90;;;;;;;7.54;33.10;101342.53;5410981;32;35352;-67
2022/04/17 02:18:43;;;;;;;3.33;1.80;;;;;;;8.02;32.71;101339.31;5407001;32;34257;-65
2022/04/17 02:21:45;;;;;;;5.82;1.80;;;;;;;7.50;33.12;101334.72;5407621;32;34638;-67
2022/04/17 02:24:47;;;;;;;3.57;1.70;;;;;;;7.73;32.25;101337.06;5403077;32;34582;-65
2022/04/17 02:27:49;;;;;;;3.73;1.77;;;;;;;7.94;32.15;101328.97;5388560;32;35024;-65
2022/04/17 02:30:51;;;;;;;2.80;1.70;;;;;;;7.49;32.09;101336.47;5395648;32;43925;-65
2022/04/17 02:33:53;;;;;;;4.50;1.73;;;;;;;7.37;32.79;101335.75;5419105;32;34731;-65
2022/04/17 02:36:55;;;;;;;6.73;1.70;;;;;;;7.29;32.20;101326.25;5402989;32;34801;-67
2022/04/17 02:39:58;;;;;;;4.20;1.80;;;;;;;7.36;32.80;101326.19;5412784;32;34860;-67
2022/04/17 02:43:00;;;;;;;3.70;1.87;;;;;;;7.78;31.74;101320.41;5416433;32;35242;-68
2022/04/17 02:46:02;;;;;;;3.23;1.60;;;;;;;6.56;33.72;101328.66;5410267;32;34577;-67
2022/04/17 02:49:04;;;;;;;3.43;1.80;;;;;;;6.77;33.62;101331.97;5408772;32;34976;-68
2022/04/17 02:52:06;;;;;;;2.60;1.77;;;;;;;6.54;34.04;101325.19;5397997;32;34562;-65
2022/04/17 02:55:10;;;;;;;2.80;1.40;;;;;;;6.67;33.71;101325.06;5425650;32;34923;-69
2022/04/17 02:58:12;;;;;;;2.65;1.60;;;;;;;6.94;33.21;101321.34;5384358;32;35284;-65
2022/04/17 03:07:55;;;;;;;3.63;1.63;;;;;;;6.45;34.32;101329.59;5403203;32;44543;-68
2022/04/17 03:10:57;;;;;;;3.47;2.20;;;;;;;6.62;33.94;101337.31;5424156;32;34633;-66
2022/04/17 03:14:00;;;;;;;5.30;1.70;;;;;;;6.74;33.84;101331.13;5395016;32;35263;-68
2022/04/17 03:17:04;;;;;;;2.57;1.63;;;;;;;6.41;33.88;101346.16;5401501;32;34802;-64
2022/04/17 03:20:07;;;;;;;3.13;1.50;;;;;;;6.02;34.18;101333.34;5414957;32;36358;-68
2022/04/17 03:23:09;;;;;;;2.07;1.30;;;;;;;6.28;33.42;101326.25;5402761;32;34534;-68
2022/04/17 03:26:11;;;;;;;3.13;1.70;;;;;;;6.57;33.55;101332.97;5406211;32;34589;-68
2022/04/17 03:29:13;;;;;;;2.40;1.53;;;;;;;6.39;33.36;101334.87;5403926;32;34182;-67
2022/04/17 03:32:15;;;;;;;2.60;1.57;;;;;;;6.05;33.63;101333.31;5411869;32;35021;-68
2022/04/17 03:35:18;;;;;;;3.37;1.63;;;;;;;6.59;32.99;101328.63;5413110;32;34702;-67
2022/04/17 03:38:20;;;;;;;2.33;1.30;;;;;;;6.14;33.48;101336.75;5404022;32;34658;-67
2022/04/17 03:41:22;;;;;;;5.63;1.60;;;;;;;6.34;33.25;101331.41;5419450;32;46656;-67
2022/04/17 03:44:24;;;;;;;1.90;1.30;;;;;;;7.10;32.27;101334.28;5410984;32;34118;-68
2022/04/17 03:47:26;;;;;;;3.40;1.80;;;;;;;6.83;32.57;101338.91;5413919;32;34903;-66
2022/04/17 03:50:28;;;;;;;4.23;1.93;;;;;;;6.59;32.80;101341.69;5396042;32;35551;-65
2022/04/17 03:53:30;;;;;;;2.63;1.60;;;;;;;6.22;33.79;101334.09;5417457;32;34631;-67
2022/04/17 03:56:33;;;;;;;3.53;1.67;;;;;;;6.10;33.79;101337.66;5387919;32;34967;-65
2022/04/17 03:59:36;;;;;;;3.03;1.83;;;;;;;6.43;33.62;101341.78;5389902;32;34401;-68
2022/04/17 04:02:43;;;;;;;4.32;2.00;;;;;;;6.43;33.49;101352.22;5412091;32;34835;-68
2022/04/17 04:05:45;;;;;;;2.80;1.90;;;;;;;6.38;33.83;101354.03;5375095;32;35577;-67
2022/04/17 04:08:50;;;;;;;2.70;1.70;;;;;;;6.30;34.07;101366.25;5410904;32;35320;-65
2022/04/17 04:11:53;;;;;;;4.47;1.87;;;;;;;7.18;32.80;101361.22;5396365;32;44293;-65
2022/04/17 04:14:55;;;;;;;3.63;1.90;;;;;;;7.37;32.42;101360.16;5424281;32;34805;-66
2022/04/17 04:17:57;;;;;;;3.73;1.60;;;;;;;6.94;33.22;101357.94;5399673;32;34849;-69
2022/04/17 04:20:59;;;;;;;3.90;1.50;;;;;;;7.22;33.07;101363.81;5395331;32;34455;-70
2022/04/17 04:24:01;;;;;;;5.93;2.10;;;;;;;7.47;32.89;101356.56;5423062;32;34172;-65
2022/04/17 04:30:24;;;;;;;3.33;1.60;;;;;;;8.17;31.77;101348.72;5410242;32;45724;-67
2022/04/17 04:33:26;;;;;;;2.97;1.80;;;;;;;7.13;33.52;101353.41;5393721;32;34799;-68
2022/04/17 04:36:29;;;;;;;4.77;1.77;;;;;;;7.75;32.55;101359.72;5405651;32;34498;-68
2022/04/17 04:39:31;;;;;;;3.83;1.83;;;;;;;7.26;33.48;101349.78;5403899;32;36350;-66
2022/04/17 04:42:33;;;;;;;3.33;1.80;;;;;;;6.83;34.60;101367.62;5416163;32;35185;-68
2022/04/17 04:52:16;;;;;;;3.37;1.80;;;;;;;6.94;34.22;101363.16;5403566;32;35265;-68
2022/04/17 04:55:18;;;;;;;4.43;1.63;;;;;;;7.51;32.92;101358.25;5414040;32;35682;-67
2022/04/17 04:58:20;;;;;;;3.73;1.83;;;;;;;7.57;33.15;101359.94;5388303;32;34822;-68
2022/04/17 05:01:22;;;;;;;4.13;1.77;;;;;;;7.67;33.06;101358.09;5404906;32;44784;-68
2022/04/17 05:04:25;;;;;;;3.63;1.80;;;;;;;7.99;32.34;101350.72;5397731;32;34962;-67
2022/04/17 05:07:27;;;;;;;2.83;1.70;;;;;;;8.68;31.33;101353.19;5411987;32;34951;-67
2022/04/17 05:10:29;;;;;;;3.60;1.57;;;;;;;9.22;30.28;101347.94;5395959;32;35185;-66
2022/04/17 05:13:31;;;;;;;4.47;1.90;;;;;;;8.77;30.88;101352.22;5409103;32;34166;-66
2022/04/17 05:16:33;;;;;;;5.37;1.90;;;;;;;8.03;31.95;101357.62;5417554;32;35056;-69
2022/04/17 05:19:35;;;;;;;3.30;1.70;;;;;;;9.27;30.34;101346.97;5412151;32;34938;-67
2022/04/17 05:22:38;;;;;;;3.83;1.97;;;;;;;9.74;29.42;101346.91;5415884;32;34497;-69
2022/04/17 05:25:40;;;;;;;2.70;1.70;;;;;;;9.76;29.47;101341.63;5403546;32;34613;-68
2022/04/17 05:28:42;;;;;;;4.43;1.93;;;;;;;8.62;30.85;101344.56;5414909;32;35618;-68
2022/04/17 05:31:44;;;;;;;2.80;1.80;;;;;;;8.27;31.58;101352.94;5396221;32;35610;-66
2022/04/17 05:34:46;;;;;;;7.40;3.70;;;;;;;8.57;31.53;101347.28;5400620;32;35694;-66
2022/04/17 05:37:49;;;;;;;4.53;1.80;;;;;;;9.84;29.94;101349.34;5425454;32;35657;-66
2022/04/17 05:40:51;;;;;;;3.73;1.70;;;;;;;10.47;28.82;101340.97;5392056;32;45920;-68
2022/04/17 05:43:56;;;;;;;4.20;2.03;;;;;;;10.50;28.30;101339.16;5420886;32;35037;-65
2022/04/17 05:46:59;;;;;;;5.63;1.80;;;;;;;9.80;28.61;101343.31;5395617;32;34833;-69
2022/04/17 05:50:01;;;;;;;4.28;1.95;;;;;;;10.66;27.75;101342.28;5387214;32;34410;-69
2022/04/17 05:53:08;;;;;;;3.53;1.87;;;;;;;10.17;27.47;101350.38;5399415;32;35393;-65
2022/04/17 05:56:10;;;;;;;3.17;1.83;;;;;;;10.09;27.97;101352.31;5381282;32;34317;-69
2022/04/17 05:59:12;;;;;;;3.75;1.90;;;;;;;10.98;27.29;101345.87;5413715;32;34717;-67
2022/04/17 06:02:15;;;;;;;4.67;2.00;;;;;;;10.83;26.75;101349.75;5382345;32;35044;-67
2022/04/17 06:05:17;;;;;;;4.15;2.05;;;;;;;10.42;27.14;101335.81;5408205;32;34774;-65
2022/04/17 06:08:24;;;;;;;3.87;2.10;;;;;;;10.84;26.69;101343.59;5402630;32;44483;-66
2022/04/17 06:11:26;;;;;;;2.57;1.80;;;;;;;12.56;24.77;101331.66;5415439;32;34768;-69
2022/04/17 06:14:28;;;;;;;3.60;1.97;;;;;;;11.60;25.99;101349.47;5413644;32;36109;-65
2022/04/17 06:17:38;;;;;;;3.63;2.00;;;;;;;12.44;25.04;101341.72;5402845;32;34878;-66
2022/04/17 06:20:40;;;;;;;2.87;1.80;;;;;;;12.28;25.49;101342.22;5413971;32;35216;-69
2022/04/17 06:23:42;;;;;;;3.63;1.97;;;;;;;13.55;23.91;101338.84;5392153;32;34979;-66
2022/04/17 06:26:45;;;;;;;3.40;1.97;;;;;;;12.07;25.38;101344.59;5411908;32;34739;-66
2022/04/17 06:29:47;;;;;;;3.07;1.90;;;;;;;13.74;23.65;101342.53;5401782;32;36311;-69
2022/04/17 06:32:50;;;;;;;5.23;1.77;;;;;;;12.64;23.94;101334.94;5410920;32;34734;-65
2022/04/17 06:35:52;;;;;;;3.72;1.85;;;;;;;12.74;24.45;101338.97;5415923;32;45220;-65
2022/04/17 06:38:54;;;;;;;3.70;1.83;;;;;;;11.83;24.87;101347.97;5395763;32;34850;-68
2022/04/17 06:41:57;;;;;;;5.40;1.90;;;;;;;11.43;26.00;101353.47;5403648;32;34235;-68
2022/04/17 06:44:59;;;;;;;2.53;1.75;;;;;;;12.37;24.56;101352.50;5413973;32;33360;-68
2022/04/17 06:48:30;;;;;;;3.43;1.93;;;;;;;11.93;24.46;101342.37;5416671;32;35472;-66
2022/04/17 06:51:32;;;;;;;5.00;2.50;;;;;;;11.98;24.78;101346.63;5392895;32;35304;-66
2022/04/17 06:54:34;;;;;;;3.23;1.90;;;;;;;13.33;23.52;101341.41;5414320;32;35507;-66
2022/04/17 06:57:39;;;;;;;2.60;1.63;;;;;;;13.91;22.17;101341.91;5391615;32;34372;-66
2022/04/17 07:00:41;;;;;;;2.13;1.40;;;;;;;14.19;22.14;101343.50;5399041;32;34617;-68
2022/04/17 07:03:44;;;;;;;3.23;1.50;;;;;;;12.22;23.94;101359.09;5423516;32;33598;-67
2022/04/17 07:06:46;;;;;;;5.87;1.70;;;;;;;11.90;24.25;101350.38;5402961;32;36385;-70
2022/04/17 07:09:48;;;;;;;3.30;1.70;;;;;;;10.88;25.86;101357.50;5410764;32;35699;-65
2022/04/17 07:12:52;;;;;;;2.93;1.90;;;;;;;12.19;23.81;101354.78;5403096;32;35389;-68
2022/04/17 07:15:54;;;;;;;3.13;1.70;;;;;;;14.49;21.61;101337.03;5412240;32;44083;-66
2022/04/17 07:18:56;;;;;;;5.87;2.10;;;;;;;12.87;23.11;101352.63;5421871;32;34967;-66
2022/04/17 07:21:58;;;;;;;7.20;3.33;;;;;;;13.79;22.59;101345.87;5391175;32;35193;-66
2022/04/17 07:25:01;;;;;;;5.70;2.80;;;;;;;14.78;21.45;101334.97;5419828;32;34227;-66
2022/04/17 07:28:03;;;;;;;;;;;;;;;13.71;22.12;101347.91;5404507;32;35141;-68
2022/04/17 07:31:06;;;;;;;6.00;2.27;;;;;;;16.04;19.97;101339.16;5405404;32;35033;-67
2022/04/17 07:34:08;;;;;;;2.65;1.85;;;;;;;13.65;22.33;101348.16;5403237;32;34369;-66
2022/04/17 07:37:10;;;;;;;3.33;1.90;;;;;;;14.53;21.42;101337.75;5408345;32;35023;-65
2022/04/17 07:40:15;;;;;;;3.13;1.70;;;;;;;14.81;20.66;101348.97;5415926;32;35083;-69
2022/04/17 07:43:17;;;;;;;5.10;2.00;;;;;;;12.94;23.09;101356.78;5387108;32;34581;-66
2022/04/17 07:46:19;;;;;;;4.87;1.80;;;;;;;12.24;24.38;101359.06;5411532;32;35311;-66
2022/04/17 07:49:26;;;;;;;3.60;1.97;;;;;;;14.50;21.81;101338.75;5410937;32;44470;-66
2022/04/17 07:52:28;;;;;;;3.60;1.53;;;;;;;14.43;21.36;101331.09;5405397;32;34101;-68
2022/04/17 07:55:30;;;;;;;3.10;1.70;;;;;;;14.96;21.17;101336.84;5409023;32;34752;-68
2022/04/17 07:58:35;;;;;;;3.03;1.80;;;;;;;14.58;21.67;101319.91;5393510;32;36435;-69
2022/04/17 08:01:39;;;;;;;2.63;1.60;;;;;;;15.66;21.00;101322.34;5404923;32;34571;-65
2022/04/17 08:04:43;;;;;;;3.43;1.97;;;;;;;15.95;20.17;101318.34;5398105;32;34991;-65
2022/04/17 08:07:45;;;;;;;3.47;2.00;;;;;;;16.61;19.79;101313.38;5413463;32;35367;-66
2022/04/17 08:10:47;;;;;;;4.10;1.90;;;;;;;15.58;21.19;101322.63;5408963;32;34715;-68
2022/04/17 08:13:49;;;;;;;3.55;1.67;;;;;;;15.13;20.84;101329.06;5410310;32;35299;-66
2022/04/17 08:16:51;;;;;;;2.42;1.65;;;;;;;15.06;20.95;101322.28;5409357;32;43698;-69
2022/04/17 08:19:54;;;;;;;3.42;2.10;;;;;;;15.77;20.38;101319.19;5409296;32;34651;-67
2022/04/17 08:22:56;;;;;;;3.12;1.90;;;;;;;15.77;20.74;101308.59;5412529;32;34737;-67
2022/04/17 08:25:58;;;;;;;3.25;2.00;;;;;;;16.16;20.47;101319.13;5399046;32;35233;-66
2022/04/17 08:29:00;;;;;;;3.92;2.03;;;;;;;15.31;21.08;101314.13;5415132;32;34538;-66
2022/04/17 08:32:02;;;;;;;3.47;2.40;;;;;;;15.95;20.84;101305.94;5382502;32;34808;-67
2022/04/17 08:35:06;;;;;;;3.37;2.08;;;;;;;15.95;20.34;101291.84;5414644;32;35548;-67
2022/04/17 08:38:08;;;;;;;3.40;1.80;;;;;;;16.68;20.22;101282.97;5415603;32;34456;-65
2022/04/17 08:41:11;;;;;;;3.80;1.83;;;;;;;15.92;20.41;101292.00;5408552;32;34500;-68
2022/04/17 08:44:13;;;;;;;4.17;2.00;;;;;;;16.52;19.86;101284.66;5402814;32;35356;-70
2022/04/17 08:47:16;;;;;;;4.28;2.00;;;;;;;16.61;19.83;101281.53;5400664;32;34648;-68
2022/04/17 08:50:19;;;;;;;3.47;1.67;;;;;;;16.26;20.42;101280.63;5396258;32;34571;-66
2022/04/17 08:53:21;;;;;;;4.28;1.90;;;;;;;16.20;19.96;101287.09;5412668;32;44859;-66
2022/04/17 08:56:24;;;;;;;3.72;1.77;;;;;;;15.32;20.81;101275.28;5375106;32;35742;-68
2022/04/17 08:59:26;;;;;;;4.32;1.87;;;;;;;16.27;19.73;101265.56;5419675;32;34861;-69
2022/04/17 09:02:29;;;;;;;3.67;1.75;;;;;;;18.11;18.57;101249.69;5404296;32;34551;-68
2022/04/17 09:05:32;;;;;;;5.15;1.75;;;;;;;18.26;18.32;101259.44;5421495;32;34217;-68
2022/04/17 09:08:34;;;;;;;2.42;1.60;;;;;;;17.63;18.47;101250.56;5404206;32;34208;-67
2022/04/17 09:11:36;;;;;;;2.50;1.62;;;;;;;16.80;19.25;101252.28;5388884;32;34524;-69
2022/04/17 09:14:39;;;;;;;2.87;1.83;;;;;;;19.01;17.51;101236.41;5414179;32;34329;-67
2022/04/17 09:17:42;;;;;;;;;;;;;;;17.64;18.57;101241.66;5396309;32;35170;-69
2022/04/17 09:20:47;;;;;;;3.95;2.12;;;;;;;17.69;18.36;101245.78;5423887;32;35411;-68
2022/04/17 09:23:50;;;;;;;2.50;1.75;;;;;;;18.38;17.37;101245.44;5404290;32;34658;-68
2022/04/17 09:26:54;;;;;;;2.80;1.70;;;;;;;16.07;19.58;101242.66;5418131;32;44629;-66
2022/04/17 09:29:56;;;;;;;3.30;1.70;;;;;;;14.93;21.02;101246.97;5401649;32;35489;-69
2022/04/17 09:33:03;;;;;;;2.65;1.60;;;;;;;15.66;20.46;101226.97;5411371;32;34941;-68
2022/04/17 09:36:06;;;;;;;2.65;1.80;;;;;;;18.52;17.33;101198.50;5415212;32;35594;-67
2022/04/17 09:39:14;;;;;;;2.72;1.70;;;;;;;16.92;18.97;101203.88;5407636;32;34800;-67
2022/04/17 09:42:21;;;;;;;2.83;1.50;;;;;;;18.98;17.50;101198.44;5413208;32;34361;-66
2022/04/17 09:45:24;;;;;;;2.62;1.50;;;;;;;18.29;16.88;101208.72;5408437;32;45139;-67
2022/04/17 09:48:33;;;;;;;;;;;;;;;17.97;17.24;101205.25;5419937;32;34400;-69
2022/04/17 09:51:35;;;;;;;3.42;1.90;;;;;;;18.14;16.99;101205.12;5395054;32;35038;-68
2022/04/17 09:54:37;;;;;;;2.90;1.62;;;;;;;17.30;17.15;101198.31;5411755;32;35345;-65
2022/04/17 09:57:41;;;;;;;4.37;1.92;;;;;;;15.88;18.24;101195.84;5365219;32;34803;-66
2022/04/17 10:00:43;;;;;;;4.43;1.80;;;;;;;16.34;19.00;101187.41;5407938;32;34967;-67
2022/04/17 10:03:45;;;;;;;2.65;1.70;;;;;;;18.05;17.29;101172.87;5423357;32;34847;-69
2022/04/17 10:06:52;;;;;;;2.15;1.52;;;;;;;18.47;16.66;101180.13;5394646;32;34207;-68
2022/04/17 10:09:54;;;;;;;2.72;1.65;;;;;;;19.36;15.73;101164.91;5423275;32;44473;-65
2022/04/17 10:12:59;;;;;;;4.32;1.98;;;;;;;19.99;15.24;101159.06;5401474;32;35700;-67
2022/04/17 10:16:01;;;;;;;3.00;1.62;;;;;;;18.38;16.68;101170.06;5409293;32;34284;-66
2022/04/17 10:19:06;;;;;;;3.33;1.77;;;;;;;16.84;18.04;101183.97;5421823;32;35219;-66
2022/04/17 10:22:09;;;;;;;1.85;1.40;;;;;;;18.43;16.03;101162.66;5399402;32;34798;-68
2022/04/17 10:25:16;;;;;;;3.65;1.75;;;;;;;18.59;15.93;101159.91;5417857;32;35807;-67
2022/04/17 10:28:19;;;;;;;3.10;1.73;;;;;;;16.90;17.92;101159.75;5392745;32;34577;-66
2022/04/17 10:31:21;;;;;;;;;;;;;;;17.57;17.99;101148.09;5408003;32;37022;-66
2022/04/17 10:34:40;;;;;;;4.07;1.57;;;;;;;16.85;18.44;101138.75;5415675;32;35441;-66
2022/04/17 10:38:24;;;;;;;5.07;1.93;;;;;;;17.61;17.65;101147.00;5401252;32;35321;-67
2022/04/17 10:41:26;;;;;;;3.63;1.40;;;;;;;14.59;20.36;101154.97;5406414;32;34286;-69
2022/04/17 10:44:30;;;;;;;2.05;1.50;;;;;;;14.86;19.94;101160.84;5390465;32;35010;-69
2022/04/17 10:47:32;;;;;;;2.80;1.67;;;;;;;16.84;17.68;101134.41;5401080;32;35257;-71
2022/04/17 10:50:51;;;;;;;2.23;1.30;;;;;;;18.73;15.93;101116.50;5410290;32;35362;-69
2022/04/17 10:54:04;;;;;;;2.87;1.63;;;;;;;16.92;17.78;101126.88;5391633;32;44950;-68
2022/04/17 10:57:07;;;;;;;1.75;1.30;;;;;;;18.56;16.47;101106.88;5388597;32;34787;-68
2022/04/17 11:00:38;;;;;;;2.53;1.52;;;;;;;17.92;16.49;101116.03;5394935;32;36756;-69
2022/04/17 11:03:55;;;;;;;3.35;1.85;;;;;;;20.18;14.85;101118.66;5400477;32;35505;-68
2022/04/17 11:07:03;;;;;;;2.28;1.40;;;;;;;18.92;15.81;101099.28;5414730;32;34166;-68
2022/04/17 11:10:07;;;;;;;1.63;1.30;;;;;;;17.03;17.89;101113.03;5411958;32;34227;-70
2022/04/17 11:13:17;;;;;;;2.95;1.70;;;;;;;17.60;17.37;101118.72;5418900;32;35255;-67
2022/04/17 11:16:19;;;;;;;2.15;1.40;;;;;;;18.59;16.74;101104.87;5399685;32;35607;-69
2022/04/17 11:19:28;;;;;;;1.52;1.35;;;;;;;19.66;15.19;101082.13;5411056;32;43932;-69
2022/04/17 11:22:35;;;;;;;2.53;1.50;;;;;;;17.83;16.72;101091.66;5406609;32;35278;-68
2022/04/17 11:25:49;;;;;;;2.37;1.50;;;;;;;18.21;16.47;101088.56;5386429;32;35127;-65
2022/04/17 11:28:58;;;;;;;2.37;1.60;;;;;;;20.91;14.23;101075.34;5408075;32;45211;-67
2022/04/17 11:32:01;;;;;;;2.12;1.17;;;;;;;19.97;14.45;101064.94;5395445;32;35156;-68
2022/04/17 11:35:05;;;;;;;2.42;1.62;;;;;;;22.43;13.18;101054.19;5405618;32;33550;-67
2022/04/17 11:38:08;;;;;;;3.17;1.50;;;;;;;20.60;14.25;101062.44;5410123;32;34300;-67
2022/04/17 11:41:10;;;;;;;2.08;1.40;;;;;;;20.09;14.70;101071.25;5399109;32;35013;-67
2022/04/17 11:44:13;;;;;;;2.20;1.50;;;;;;;20.85;14.08;101061.56;5431226;32;34231;-67
2022/04/17 11:47:21;;;;;;;2.28;1.52;;;;;;;20.44;14.52;101062.62;5394655;32;34720;-67
2022/04/17 11:50:28;;;;;;;2.87;1.70;;;;;;;19.95;14.79;101066.84;5407283;32;44569;-67
2022/04/17 11:53:32;;;;;;;2.70;1.60;;;;;;;18.70;15.74;101056.31;5392408;32;35526;-71
2022/04/17 11:56:51;;;;;;;4.32;1.75;;;;;;;18.52;15.73;101060.09;5382448;32;34924;-70
2022/04/17 11:59:57;;;;;;;7.35;1.40;;;;;;;21.77;13.90;101047.69;5424779;32;46006;-67
2022/04/17 12:03:06;;;;;;;6.12;1.62;;;;;;;18.90;15.11;101058.59;5398125;32;34635;-69
2022/04/17 12:06:09;;;;;;;2.30;1.40;;;;;;;19.54;14.90;101055.41;5408499;32;34336;-67
2022/04/17 12:09:12;;;;;;;3.90;1.58;;;;;;;20.60;14.04;101041.06;5394641;32;34521;-67
2022/04/17 12:12:16;;;;;;;2.67;1.62;;;;;;;21.01;14.03;101036.31;5403172;32;35015;-70
2022/04/17 12:15:19;;;;;;;3.78;1.60;;;;;;;22.56;12.51;101028.16;5407450;32;34331;-67
2022/04/17 12:18:21;;;;;;;2.70;1.58;;;;;;;22.64;12.18;101041.78;5404656;32;47977;-69
2022/04/17 12:21:28;;;;;;;1.65;1.35;;;;;;;22.66;12.57;101041.66;5415744;32;34613;-67
2022/04/17 12:24:30;;;;;;;3.53;1.58;;;;;;;21.09;13.30;101025.91;5405156;32;34832;-67
2022/04/17 12:27:32;;;;;;;1.80;1.33;;;;;;;20.10;14.23;101030.28;5410077;32;34269;-67
2022/04/17 12:30:34;;;;;;;3.25;1.67;;;;;;;16.67;16.93;101042.34;5396194;32;35325;-70
2022/04/17 12:33:36;;;;;;;3.25;1.70;;;;;;;19.30;15.22;101026.72;5396436;32;34822;-70
2022/04/17 12:36:42;;;;;;;4.90;1.90;;;;;;;19.98;14.24;101018.62;5414389;32;34876;-69
2022/04/17 12:39:44;;;;;;;3.87;1.65;;;;;;;21.20;13.00;101024.28;5413769;32;35253;-66
2022/04/17 12:42:47;;;;;;;3.85;1.50;;;;;;;19.72;14.20;101017.72;5415904;32;34853;-67
2022/04/17 12:45:58;;;;;;;1.67;1.30;;;;;;;20.74;13.47;101009.78;5395370;32;34139;-68
2022/04/17 12:49:19;;;;;;;2.37;1.58;;;;;;;21.16;13.12;100994.25;5420065;32;47339;-69
2022/04/17 12:52:21;;;;;;;3.47;1.45;;;;;;;18.63;15.47;100999.06;5405820;32;35137;-68
2022/04/17 12:55:37;;;;;;;2.42;1.60;;;;;;;20.21;14.40;100989.47;5401693;32;35574;-69
2022/04/17 12:58:53;;;;;;;2.10;1.63;;;;;;;17.13;16.61;101000.03;5407956;32;35253;-68
2022/04/17 13:01:55;;;;;;;2.67;1.50;;;;;;;15.64;18.40;101009.72;5403672;32;44703;-69
2022/04/17 13:05:01;;;;;;;1.73;1.43;;;;;;;14.73;19.55;100998.25;5419407;32;35115;-66
2022/04/17 13:08:05;;;;;;;2.43;1.60;;;;;;;16.02;17.93;100991.00;5408480;32;35440;-69
2022/04/17 13:11:20;;;;;;;8.23;1.60;;;;;;;15.23;18.81;100979.97;5404719;32;34727;-66
2022/04/17 13:14:22;;;;;;;2.37;1.50;;;;;;;14.74;19.19;100977.00;5410847;32;45635;-70
2022/04/17 13:17:24;;;;;;;4.50;1.83;;;;;;;14.00;19.96;100986.56;5399804;32;34425;-67
2022/04/17 13:20:28;;;;;;;2.00;1.30;;;;;;;14.84;18.80;100975.66;5421276;32;34609;-68
2022/04/17 13:23:33;;;;;;;3.57;1.60;;;;;;;14.43;19.36;100976.72;5395389;32;33669;-69
2022/04/17 13:26:35;;;;;;;2.37;1.50;;;;;;;14.28;19.43;100972.94;5388153;32;35280;-68
2022/04/17 13:29:38;;;;;;;2.07;1.37;;;;;;;14.49;19.09;100964.09;5418035;32;34670;-66
2022/04/17 13:32:41;;;;;;;2.70;1.40;;;;;;;13.88;19.33;100966.78;5398111;32;34999;-67
2022/04/17 13:35:43;;;;;;;4.65;1.80;;;;;;;14.62;18.91;100946.72;5423552;32;35400;-65
2022/04/17 13:38:46;;;;;;;3.67;1.70;;;;;;;14.51;19.56;100964.00;5404272;32;34966;-66
2022/04/17 13:41:48;;;;;;;3.12;1.35;;;;;;;14.62;19.25;100945.87;5414941;32;35754;-68
2022/04/17 13:44:50;;;;;;;4.13;1.53;;;;;;;14.50;19.50;100944.66;5411848;32;34823;-68
2022/04/17 13:47:52;;;;;;;4.03;1.60;;;;;;;14.84;19.27;100943.03;5397655;32;45697;-66
2022/04/17 13:50:55;;;;;;;3.57;1.70;;;;;;;14.14;19.99;100941.84;5408720;32;34300;-66
2022/04/17 13:53:57;;;;;;;5.37;1.70;;;;;;;14.47;19.67;100930.69;5405174;32;35831;-66
2022/04/17 13:56:59;;;;;;;2.77;1.53;;;;;;;14.82;19.07;100932.53;5396011;32;34971;-67
2022/04/17 14:00:02;;;;;;;2.97;1.40;;;;;;;14.57;19.46;100922.25;5397993;32;35228;-67
2022/04/17 14:03:04;;;;;;;2.15;1.15;;;;;;;14.29;19.97;100905.91;5426880;32;34675;-68
2022/04/17 14:06:06;;;;;;;3.07;1.40;;;;;;;14.53;19.42;100919.81;5404445;32;34821;-68
2022/04/17 14:09:08;;;;;;;1.83;1.40;;;;;;;14.71;19.40;100918.97;5380599;32;34836;-66
2022/04/17 14:12:13;;;;;;;4.20;1.87;;;;;;;13.61;19.84;100921.31;5421365;32;35498;-66
2022/04/17 14:15:15;;;;;;;3.57;1.77;;;;;;;13.57;20.33;100924.13;5397873;32;34528;-71
2022/04/17 14:18:18;;;;;;;2.67;1.40;;;;;;;13.51;19.82;100917.31;5420491;32;35249;-66
2022/04/17 14:21:20;;;;;;;2.27;1.37;;;;;;;14.09;19.42;100905.03;5396621;32;35434;-69
2022/04/17 14:24:22;;;;;;;1.77;1.40;;;;;;;13.09;20.41;100905.00;5401897;32;44992;-69
2022/04/17 14:27:24;;;;;;;2.27;1.40;;;;;;;13.85;19.85;100895.59;5396674;32;34308;-67
2022/04/17 14:30:26;;;;;;;1.60;1.20;;;;;;;13.67;19.92;100896.41;5395881;32;34213;-68
2022/04/17 14:33:28;;;;;;;2.83;1.67;;;;;;;14.86;19.13;100889.09;5417917;32;34465;-69
2022/04/17 14:36:30;;;;;;;3.13;1.73;;;;;;;14.36;19.69;100881.78;5401971;32;34985;-67
2022/04/17 14:39:32;;;;;;;7.90;1.67;;;;;;;14.60;19.67;100874.50;5421312;32;35480;-68